createdAt,value
2023-10-10T00:00:50.925Z,6.30
2023-10-10T00:03:22.546Z,6.35
2023-10-10T00:05:50.806Z,6.15
2023-10-10T00:08:21.887Z,6.50
2023-10-10T00:10:52.371Z,6.05
2023-10-10T00:13:21.918Z,6.22
2023-10-10T00:15:56.681Z,6.85
2023-10-10T00:18:26.430Z,6.50
2023-10-10T00:21:07.838Z,6.75
2023-10-10T00:23:43.136Z,5.63
2023-10-10T00:26:14.539Z,6.40
2023-10-10T00:28:46.503Z,7.70
2023-10-10T00:31:19.906Z,7.15
2023-10-10T00:33:51.550Z,7.68
2023-10-10T00:36:23.838Z,8.18
2023-10-10T00:38:55.691Z,7.45
2023-10-10T00:41:24.463Z,8.00
2023-10-10T00:43:53.312Z,8.13
2023-10-10T00:46:25.941Z,8.35
2023-10-10T00:49:01.333Z,7.97
2023-10-10T00:51:31.514Z,9.05
2023-10-10T00:54:14.707Z,8.13
2023-10-10T00:56:45.835Z,7.57
2023-10-10T00:59:17.942Z,7.85
2023-10-10T01:01:48.659Z,7.10
2023-10-10T01:04:29.936Z,8.30
2023-10-10T01:06:58.810Z,8.63
2023-10-10T01:09:34.750Z,7.45
2023-10-10T01:12:05.900Z,7.60
2023-10-10T01:14:34.286Z,8.00
2023-10-10T01:17:03.093Z,8.10
2023-10-10T01:19:32.993Z,8.27
2023-10-10T01:22:11.013Z,7.60
2023-10-10T01:24:42.186Z,7.45
2023-10-10T01:27:22.495Z,7.95
2023-10-10T01:30:13.828Z,6.50
2023-10-10T01:32:42.053Z,8.27
2023-10-10T01:35:17.598Z,8.35
2023-10-10T01:37:56.445Z,8.15
2023-10-10T01:40:29.619Z,7.80
2023-10-10T01:43:00.890Z,7.70
2023-10-10T01:45:30.894Z,7.03
2023-10-10T01:47:59.308Z,7.32
2023-10-10T01:50:28.847Z,7.18
2023-10-10T01:52:59.090Z,6.70
2023-10-10T01:55:27.694Z,6.65
2023-10-10T01:57:58.929Z,6.55
2023-10-10T02:00:28.653Z,7.03
2023-10-10T02:02:58.075Z,7.55
2023-10-10T02:05:46.679Z,7.05
2023-10-10T02:08:18.824Z,7.88
2023-10-10T02:10:51.587Z,7.03
2023-10-10T02:13:21.198Z,7.25
2023-10-10T02:15:49.380Z,7.65
2023-10-10T02:18:25.302Z,7.32
2023-10-10T02:20:54.335Z,7.68
2023-10-10T02:23:33.350Z,8.45
2023-10-10T02:26:15.588Z,8.82
2023-10-10T02:28:50.332Z,8.13
2023-10-10T02:31:20.082Z,8.73
2023-10-10T02:33:56.588Z,8.93
2023-10-10T02:36:32.469Z,8.57
2023-10-10T02:39:20.277Z,8.45
2023-10-10T02:41:53.400Z,8.57
2023-10-10T02:44:47.471Z,8.18
2023-10-10T02:47:23.424Z,7.97
2023-10-10T02:49:57.228Z,8.43
2023-10-10T02:52:26.325Z,8.18
2023-10-10T02:54:56.400Z,6.78
2023-10-10T02:57:31.508Z,7.20
2023-10-10T03:00:17.752Z,7.07
2023-10-10T03:02:51.596Z,7.15
2023-10-10T03:05:39.501Z,5.80
2023-10-10T03:08:16.012Z,6.13
2023-10-10T03:10:56.232Z,6.63
2023-10-10T03:13:30.028Z,5.43
2023-10-10T03:16:12.264Z,6.35
2023-10-10T03:18:53.933Z,7.32
2023-10-10T03:21:37.355Z,8.55
2023-10-10T03:24:16.680Z,10.02
2023-10-10T03:27:01.679Z,8.57
2023-10-10T03:29:48.223Z,8.57
2023-10-10T03:32:26.780Z,8.13
2023-10-10T03:34:58.923Z,7.88
2023-10-10T03:37:31.656Z,7.68
2023-10-10T03:43:06.782Z,6.78
2023-10-10T03:45:52.425Z,6.80
2023-10-10T03:48:38.101Z,7.18
2023-10-10T03:51:27.966Z,6.28
2023-10-10T03:54:24.049Z,6.60
2023-10-10T03:57:09.701Z,6.28
2023-10-10T03:59:56.964Z,6.07
2023-10-10T04:02:42.604Z,6.43
2023-10-10T04:05:28.565Z,6.32
2023-10-10T04:08:14.498Z,6.00
2023-10-10T04:11:05.177Z,5.50
2023-10-10T04:13:50.753Z,6.55
2023-10-10T04:16:37.749Z,5.32
2023-10-10T04:19:23.285Z,6.25
2023-10-10T04:22:09.148Z,6.03
2023-10-10T04:24:54.655Z,6.20
2023-10-10T04:27:39.964Z,5.35
2023-10-10T04:30:26.146Z,5.28
2023-10-10T04:33:13.417Z,5.18
2023-10-10T04:35:59.019Z,5.25
2023-10-10T04:38:44.644Z,4.82
2023-10-10T04:41:32.389Z,4.63
2023-10-10T04:44:18.205Z,5.63
2023-10-10T04:47:04.201Z,6.00
2023-10-10T04:49:51.513Z,5.35
2023-10-10T04:52:37.245Z,5.80
2023-10-10T04:55:23.475Z,5.93
2023-10-10T04:58:09.039Z,5.47
2023-10-10T05:00:54.979Z,5.03
2023-10-10T05:03:40.349Z,4.65
2023-10-10T05:06:27.728Z,5.30
2023-10-10T05:09:13.569Z,6.13
2023-10-10T05:11:59.127Z,5.28
2023-10-10T05:14:46.735Z,6.55
2023-10-10T05:17:32.530Z,5.13
2023-10-10T05:20:18.207Z,5.47
2023-10-10T05:23:05.514Z,6.50
2023-10-10T05:25:34.037Z,5.63
2023-10-10T05:28:02.081Z,6.03
2023-10-10T05:30:41.168Z,6.28
2023-10-10T05:33:09.659Z,8.02
2023-10-10T05:35:39.693Z,8.25
2023-10-10T05:38:10.217Z,6.90
2023-10-10T05:40:40.073Z,6.80
2023-10-10T05:43:10.996Z,6.88
2023-10-10T05:45:39.358Z,6.45
2023-10-10T05:48:08.000Z,5.63
2023-10-10T05:50:37.267Z,5.65
2023-10-10T05:53:07.564Z,6.70
2023-10-10T05:55:38.595Z,6.25
2023-10-10T05:58:07.698Z,6.72
2023-10-10T06:00:38.719Z,7.13
2023-10-10T06:03:07.808Z,8.38
2023-10-10T06:05:36.448Z,9.93
2023-10-10T06:08:07.576Z,9.02
2023-10-10T06:10:37.308Z,8.25
2023-10-10T06:13:07.952Z,8.95
2023-10-10T06:15:37.335Z,8.90
2023-10-10T06:18:14.643Z,8.32
2023-10-10T06:20:54.751Z,8.30
2023-10-10T06:23:35.340Z,7.00
2023-10-10T06:26:05.530Z,7.47
2023-10-10T06:28:38.803Z,7.47
2023-10-10T06:31:12.036Z,7.95
2023-10-10T06:33:42.790Z,7.38
2023-10-10T06:36:33.936Z,8.63
2023-10-10T06:39:20.002Z,8.20
2023-10-10T06:41:52.451Z,10.25
2023-10-10T06:44:34.874Z,8.85
2023-10-10T06:47:10.779Z,8.75
2023-10-10T06:49:48.622Z,8.05
2023-10-10T06:52:20.493Z,8.50
2023-10-10T06:54:55.388Z,8.68
2023-10-10T06:57:42.633Z,9.27
2023-10-10T07:00:21.868Z,9.02
2023-10-10T07:02:52.394Z,9.32
2023-10-10T07:05:21.647Z,9.43
2023-10-10T07:07:58.647Z,7.95
2023-10-10T07:10:28.865Z,8.07
2023-10-10T07:12:59.516Z,8.40
2023-10-10T07:15:28.066Z,8.32
2023-10-10T07:18:09.755Z,8.88
2023-10-10T07:21:05.655Z,9.07
2023-10-10T07:23:42.778Z,9.77
2023-10-10T07:26:20.727Z,9.52
2023-10-10T07:28:54.473Z,8.18
2023-10-10T07:31:23.308Z,9.98
2023-10-10T07:34:14.005Z,9.60
2023-10-10T07:36:45.106Z,8.95
2023-10-10T07:39:30.705Z,8.93
2023-10-10T07:41:58.960Z,8.10
2023-10-10T07:44:31.614Z,8.02
2023-10-10T07:49:52.347Z,6.93
2023-10-10T07:52:22.588Z,9.02
2023-10-10T07:54:54.959Z,9.82
2023-10-10T07:57:30.118Z,8.30
2023-10-10T08:00:00.122Z,8.20
2023-10-10T08:02:33.834Z,7.63
2023-10-10T08:05:11.089Z,7.65
2023-10-10T08:07:39.808Z,7.85
2023-10-10T08:10:15.701Z,8.77
2023-10-10T08:12:45.461Z,8.40
2023-10-10T08:15:26.710Z,9.00
2023-10-10T08:17:57.306Z,7.90
2023-10-10T08:20:49.788Z,8.52
2023-10-10T08:23:18.432Z,8.90
2023-10-10T08:25:49.914Z,8.52
2023-10-10T08:28:18.135Z,8.77
2023-10-10T08:30:47.693Z,8.75
2023-10-10T08:33:17.196Z,9.65
2023-10-10T08:35:46.792Z,8.15
2023-10-10T08:38:16.242Z,8.25
2023-10-10T08:40:44.579Z,8.80
2023-10-10T08:43:13.162Z,8.45
2023-10-10T08:45:45.458Z,9.32
2023-10-10T08:48:16.953Z,8.07
2023-10-10T08:50:47.217Z,8.43
2023-10-10T08:53:17.786Z,9.85
2023-10-10T08:55:52.905Z,9.40
2023-10-10T08:58:23.803Z,9.68
2023-10-10T09:00:52.619Z,9.18
2023-10-10T09:03:22.575Z,10.82
2023-10-10T09:05:50.858Z,9.63
2023-10-10T09:08:28.289Z,9.13
2023-10-10T09:11:00.070Z,9.50
2023-10-10T09:13:28.675Z,10.20
2023-10-10T09:15:57.727Z,8.98
2023-10-10T09:18:32.503Z,9.43
2023-10-10T09:21:19.744Z,9.75
2023-10-10T09:24:08.830Z,8.95
2023-10-10T09:26:38.165Z,9.25
2023-10-10T09:29:17.255Z,9.23
2023-10-10T09:31:47.466Z,8.98
2023-10-10T09:34:23.941Z,8.98
2023-10-10T09:36:58.086Z,8.70
2023-10-10T09:39:38.183Z,9.40
2023-10-10T09:42:24.621Z,9.18
2023-10-10T09:45:16.615Z,9.63
2023-10-10T09:47:54.883Z,9.45
2023-10-10T09:50:39.301Z,9.20
2023-10-10T09:53:21.008Z,9.00
2023-10-10T09:55:55.034Z,8.73
2023-10-10T09:58:29.755Z,8.95
2023-10-10T10:01:14.458Z,8.98
2023-10-10T10:03:56.620Z,8.60
2023-10-10T10:07:07.062Z,8.90
2023-10-10T10:09:56.614Z,9.00
2023-10-10T10:12:48.380Z,8.43
2023-10-10T10:15:40.313Z,8.93
2023-10-10T10:18:15.453Z,9.27
2023-10-10T10:20:48.767Z,8.75
2023-10-10T10:23:27.638Z,9.00
2023-10-10T10:26:05.930Z,9.80
2023-10-10T10:28:37.094Z,8.60
2023-10-10T10:31:09.219Z,9.48
2023-10-10T10:33:54.166Z,10.07
2023-10-10T10:36:28.606Z,9.82
2023-10-10T10:39:16.081Z,10.07
2023-10-10T10:41:49.448Z,9.73
2023-10-10T10:44:30.733Z,9.10
2023-10-10T10:46:59.378Z,10.15
2023-10-10T10:49:30.680Z,10.60
2023-10-10T10:52:19.442Z,9.82
2023-10-10T10:55:20.137Z,11.90
2023-10-10T10:57:50.594Z,11.57
2023-10-10T11:00:30.834Z,12.95
2023-10-10T11:03:02.023Z,12.07
2023-10-10T11:05:31.322Z,10.45
2023-10-10T11:08:12.498Z,11.38
2023-10-10T11:10:47.658Z,11.20
2023-10-10T11:13:16.435Z,10.98
2023-10-10T11:15:44.895Z,11.07
2023-10-10T11:18:13.829Z,11.15
2023-10-10T11:20:56.030Z,11.57
2023-10-10T11:23:42.696Z,12.20
2023-10-10T11:26:15.263Z,11.27
2023-10-10T11:28:49.419Z,11.38
2023-10-10T11:31:24.788Z,12.43
2023-10-10T11:34:11.561Z,12.32
2023-10-10T11:36:42.985Z,13.15
2023-10-10T11:39:35.369Z,11.32
2023-10-10T11:42:07.037Z,11.15
2023-10-10T11:44:35.857Z,11.13
2023-10-10T11:47:09.122Z,11.85
2023-10-10T11:49:37.755Z,12.48
2023-10-10T11:52:06.369Z,13.68
2023-10-10T11:54:35.241Z,11.32
2023-10-10T11:57:04.208Z,13.75
2023-10-10T11:59:34.941Z,12.65
2023-10-10T12:02:09.862Z,12.20
2023-10-10T12:04:38.184Z,12.00
2023-10-10T12:07:07.642Z,11.52
2023-10-10T12:09:36.056Z,11.68
2023-10-10T12:12:05.447Z,10.30
2023-10-10T12:14:35.674Z,10.32
2023-10-10T12:17:07.103Z,11.25
2023-10-10T12:19:39.592Z,10.63
2023-10-10T12:22:12.305Z,11.77
2023-10-10T12:24:41.812Z,11.70
2023-10-10T12:27:11.013Z,11.50
2023-10-10T12:29:42.585Z,10.70
2023-10-10T12:32:20.773Z,12.95
2023-10-10T12:34:49.730Z,11.45
2023-10-10T12:37:18.224Z,13.93
2023-10-10T12:39:47.382Z,11.73
2023-10-10T12:42:15.694Z,12.05
2023-10-10T12:44:49.915Z,12.43
2023-10-10T12:47:20.789Z,12.60
2023-10-10T12:49:49.338Z,11.57
2023-10-10T12:52:19.272Z,12.07
2023-10-10T12:54:58.657Z,12.57
2023-10-10T12:57:34.079Z,12.75
2023-10-10T13:00:18.044Z,12.20
2023-10-10T13:02:46.642Z,12.48
2023-10-10T13:05:14.885Z,12.32
2023-10-10T13:07:44.855Z,12.68
2023-10-10T13:10:14.560Z,11.73
2023-10-10T13:12:46.723Z,12.88
2023-10-10T13:15:20.278Z,13.35
2023-10-10T13:18:12.671Z,12.98
2023-10-10T13:20:41.831Z,13.00
2023-10-10T13:23:10.588Z,12.95
2023-10-10T13:25:39.311Z,12.60
2023-10-10T13:28:10.889Z,11.68
2023-10-10T13:30:41.294Z,11.30
2023-10-10T13:33:09.556Z,12.57
2023-10-10T13:35:38.697Z,13.98
2023-10-10T13:38:08.832Z,13.65
2023-10-10T13:40:45.148Z,12.75
2023-10-10T13:43:18.316Z,13.65
2023-10-10T13:45:50.444Z,13.60
2023-10-10T13:48:20.040Z,12.98
2023-10-10T13:50:52.434Z,12.88
2023-10-10T13:55:52.605Z,13.88
2023-10-10T13:58:20.926Z,13.68
2023-10-10T14:00:57.339Z,12.90
2023-10-10T14:03:31.408Z,12.77
2023-10-10T14:06:05.115Z,14.00
2023-10-10T14:08:33.665Z,13.50
2023-10-10T14:11:02.178Z,13.75
2023-10-10T14:13:30.593Z,12.43
2023-10-10T14:16:00.632Z,13.20
2023-10-10T14:18:30.106Z,11.93
2023-10-10T14:21:02.603Z,13.73
2023-10-10T14:26:15.170Z,14.60
2023-10-10T14:28:51.557Z,13.63
2023-10-10T14:31:23.080Z,14.68
2023-10-10T14:33:51.695Z,13.83
2023-10-10T14:36:20.208Z,12.75
2023-10-10T14:38:51.525Z,13.82
2023-10-10T14:41:22.418Z,14.48
2023-10-10T14:43:52.778Z,15.70
2023-10-10T14:46:28.677Z,14.18
2023-10-10T14:49:06.771Z,14.90
2023-10-10T14:51:36.763Z,16.67
2023-10-10T14:54:13.090Z,15.18
2023-10-10T14:56:47.317Z,14.40
2023-10-10T14:59:19.364Z,14.63
2023-10-10T15:01:50.255Z,16.13
2023-10-10T15:04:19.734Z,14.82
2023-10-10T15:06:50.225Z,14.63
2023-10-10T15:09:21.545Z,15.38
2023-10-10T15:11:49.933Z,14.57
2023-10-10T15:14:20.813Z,15.90
2023-10-10T15:16:50.857Z,13.98
2023-10-10T15:19:19.294Z,14.75
2023-10-10T15:21:49.824Z,15.68
2023-10-10T15:24:18.307Z,15.95
2023-10-10T15:26:49.260Z,15.38
2023-10-10T15:29:19.055Z,13.77
2023-10-10T15:31:47.462Z,12.48
2023-10-10T15:34:17.031Z,16.40
2023-10-10T15:36:47.176Z,14.10
2023-10-10T15:39:16.330Z,10.82
2023-10-10T15:41:46.043Z,13.82
2023-10-10T15:44:16.939Z,17.35
2023-10-10T15:46:46.105Z,16.38
2023-10-10T15:51:48.067Z,13.25
2023-10-10T15:54:17.517Z,16.48
2023-10-10T15:56:47.974Z,15.52
2023-10-10T15:59:17.529Z,15.02
2023-10-10T16:01:48.455Z,15.27
2023-10-10T16:04:19.255Z,15.18
2023-10-10T16:06:51.746Z,15.88
2023-10-10T16:11:59.643Z,15.43
2023-10-10T16:14:28.027Z,17.10
2023-10-10T16:16:56.353Z,15.38
2023-10-10T16:19:27.486Z,15.25
2023-10-10T16:21:57.295Z,16.77
2023-10-10T16:24:28.101Z,16.92
2023-10-10T16:27:00.562Z,17.10
2023-10-10T16:29:34.938Z,16.50
2023-10-10T16:32:08.155Z,15.98
2023-10-10T16:34:41.298Z,16.77
2023-10-10T16:37:15.133Z,17.95
2023-10-10T16:39:46.614Z,16.88
2023-10-10T16:42:16.488Z,17.90
2023-10-10T16:44:46.568Z,13.43
2023-10-10T16:47:18.875Z,15.55
2023-10-10T16:52:22.414Z,17.05
2023-10-10T16:54:53.347Z,17.27
2023-10-10T16:57:26.020Z,15.07
2023-10-10T16:59:58.106Z,17.40
2023-10-10T17:02:30.459Z,18.45
2023-10-10T17:05:06.382Z,17.83
2023-10-10T17:07:36.444Z,16.20
2023-10-10T17:10:07.750Z,17.55
2023-10-10T17:12:38.124Z,15.75
2023-10-10T17:15:09.963Z,16.27
2023-10-10T17:17:39.987Z,17.43
2023-10-10T17:20:17.010Z,17.17
2023-10-10T17:22:49.745Z,16.75
2023-10-10T17:25:18.918Z,16.25
2023-10-10T17:27:53.375Z,15.77
2023-10-10T17:30:23.234Z,17.48
2023-10-10T17:32:53.940Z,18.55
2023-10-10T17:35:24.458Z,18.13
2023-10-10T17:37:55.521Z,17.25
2023-10-10T17:40:25.127Z,18.48
2023-10-10T17:42:55.008Z,19.20
2023-10-10T17:45:26.552Z,19.08
2023-10-10T17:47:58.714Z,15.02
2023-10-10T17:50:29.840Z,17.88
2023-10-10T17:52:59.287Z,19.38
2023-10-10T17:55:28.326Z,17.38
2023-10-10T17:57:56.586Z,18.85
2023-10-10T18:00:27.058Z,18.85
2023-10-10T18:02:57.395Z,19.52
2023-10-10T18:05:25.584Z,18.88
2023-10-10T18:07:53.726Z,20.05
2023-10-10T18:10:24.304Z,18.10
2023-10-10T18:12:52.544Z,19.42
2023-10-10T18:15:21.280Z,18.10
2023-10-10T18:17:49.835Z,19.13
2023-10-10T18:20:18.574Z,17.02
2023-10-10T18:22:48.075Z,19.45
2023-10-10T18:25:16.659Z,17.50
2023-10-10T18:27:48.900Z,17.80
2023-10-10T18:30:19.975Z,18.13
2023-10-10T18:32:49.134Z,18.70
2023-10-10T18:35:17.919Z,17.33
2023-10-10T18:37:48.856Z,16.42
2023-10-10T18:40:20.534Z,14.60
2023-10-10T18:42:50.519Z,14.55
2023-10-10T18:45:19.929Z,14.00
2023-10-10T18:47:50.030Z,13.32
2023-10-10T18:50:20.753Z,16.50
2023-10-10T18:52:51.294Z,15.80
2023-10-10T18:55:19.903Z,15.68
2023-10-10T18:57:57.496Z,13.45
2023-10-10T19:00:27.561Z,15.15
2023-10-10T19:02:57.929Z,14.02
2023-10-10T19:05:27.850Z,15.00
2023-10-10T19:07:57.833Z,17.83
2023-10-10T19:10:27.189Z,16.85
2023-10-10T19:12:57.977Z,16.27
2023-10-10T19:15:27.609Z,17.23
2023-10-10T19:18:00.775Z,15.55
2023-10-10T19:20:34.450Z,17.50
2023-10-10T19:23:05.865Z,17.38
2023-10-10T19:25:34.572Z,15.07
2023-10-10T19:28:04.549Z,15.45
2023-10-10T19:30:34.613Z,14.45
2023-10-10T19:33:05.746Z,15.55
2023-10-10T19:35:44.576Z,15.80
2023-10-10T19:38:18.516Z,18.33
2023-10-10T19:40:48.078Z,15.35
2023-10-10T19:43:17.540Z,16.10
2023-10-10T19:45:46.890Z,18.40
2023-10-10T19:48:17.550Z,17.92
2023-10-10T19:50:47.295Z,17.17
2023-10-10T19:53:15.936Z,17.33
2023-10-10T19:55:44.930Z,17.88
2023-10-10T19:58:13.967Z,15.48
2023-10-10T20:00:47.189Z,15.10
2023-10-10T20:03:19.293Z,15.02
2023-10-10T20:05:47.758Z,16.35
2023-10-10T20:08:15.894Z,18.83
2023-10-10T20:10:49.465Z,17.77
2023-10-10T20:13:18.799Z,16.45
2023-10-10T20:15:48.265Z,17.27
2023-10-10T20:18:16.942Z,17.55
2023-10-10T20:20:45.225Z,17.42
2023-10-10T20:23:13.348Z,18.20
2023-10-10T20:25:42.874Z,18.85
2023-10-10T20:28:11.742Z,20.05
2023-10-10T20:30:44.417Z,18.15
2023-10-10T20:33:17.384Z,19.05
2023-10-10T20:35:47.037Z,18.58
2023-10-10T20:38:22.043Z,17.80
2023-10-10T20:40:52.742Z,18.30
2023-10-10T20:43:22.476Z,18.65
2023-10-10T20:45:50.730Z,17.75
2023-10-10T20:48:23.949Z,17.38
2023-10-10T20:50:52.341Z,15.63
2023-10-10T20:53:20.930Z,18.30
2023-10-10T20:55:52.202Z,18.42
2023-10-10T20:58:20.460Z,15.45
2023-10-10T21:00:48.713Z,16.85
2023-10-10T21:03:17.310Z,16.63
2023-10-10T21:05:48.136Z,13.85
2023-10-10T21:08:18.740Z,13.93
2023-10-10T21:10:47.444Z,14.90
2023-10-10T21:13:16.686Z,15.60
2023-10-10T21:15:45.651Z,15.77
2023-10-10T21:18:13.785Z,17.23
2023-10-10T21:20:56.854Z,19.33
2023-10-10T21:23:32.900Z,17.73
2023-10-10T21:26:01.194Z,16.02
2023-10-10T21:28:29.235Z,18.35
2023-10-10T21:30:58.054Z,22.15
2023-10-10T21:33:27.120Z,21.23
2023-10-10T21:35:55.299Z,25.05
2023-10-10T21:38:38.460Z,22.38
2023-10-10T21:41:10.944Z,22.92
2023-10-10T21:43:39.668Z,24.60
2023-10-10T21:46:08.608Z,23.23
2023-10-10T21:48:37.194Z,24.60
2023-10-10T21:51:08.272Z,19.63
2023-10-10T21:53:38.580Z,19.52
2023-10-10T21:56:10.627Z,19.98
2023-10-10T21:58:40.440Z,21.42
2023-10-10T22:01:12.852Z,20.25
2023-10-10T22:03:45.768Z,19.77
2023-10-10T22:06:14.688Z,18.95
2023-10-10T22:08:44.028Z,18.63
2023-10-10T22:11:15.768Z,21.48
2023-10-10T22:13:44.852Z,20.05
2023-10-10T22:16:13.122Z,19.23
2023-10-10T22:18:41.649Z,20.70
2023-10-10T22:21:12.088Z,20.95
2023-10-10T22:23:40.815Z,18.40
2023-10-10T22:26:10.543Z,17.23
2023-10-10T22:28:40.522Z,18.40
2023-10-10T22:31:17.691Z,16.23
2023-10-10T22:33:47.251Z,17.33
2023-10-10T22:36:17.112Z,18.75
2023-10-10T22:38:46.848Z,17.38
2023-10-10T22:41:15.538Z,17.48
2023-10-10T22:43:45.962Z,15.55
2023-10-10T22:46:14.622Z,14.55
2023-10-10T22:48:44.467Z,18.55
2023-10-10T22:51:14.484Z,18.15
2023-10-10T22:53:43.471Z,18.55
2023-10-10T22:56:12.909Z,18.23
2023-10-10T22:58:43.976Z,17.35
2023-10-10T23:01:17.208Z,17.48
2023-10-10T23:03:47.077Z,18.98
2023-10-10T23:06:15.730Z,19.95
2023-10-10T23:08:44.342Z,18.15
2023-10-10T23:11:14.860Z,18.73
2023-10-10T23:13:43.528Z,18.33
2023-10-10T23:16:18.598Z,19.17
2023-10-10T23:18:47.407Z,20.83
2023-10-10T23:21:16.145Z,18.50
2023-10-10T23:23:44.602Z,15.98
2023-10-10T23:26:13.863Z,18.55
2023-10-10T23:28:42.004Z,16.25
2023-10-10T23:31:10.391Z,16.25
2023-10-10T23:33:41.746Z,18.88
2023-10-10T23:36:12.677Z,16.80
2023-10-10T23:38:45.542Z,16.45
2023-10-10T23:41:16.260Z,16.13
2023-10-10T23:43:47.785Z,18.00
2023-10-10T23:46:23.296Z,18.35
2023-10-10T23:48:56.235Z,17.67
2023-10-10T23:51:24.561Z,16.13
2023-10-10T23:53:52.997Z,14.32
2023-10-10T23:56:21.179Z,16.38
2023-10-10T23:58:53.130Z,15.20
